Time;durP1;ratioP1;P1;durP2;ratioP2;P2;SDS_P1;SDS_P2;PMS_P1;PMS_P2;Temp;Humidity;BMP_temperature;BMP_pressure;BME280_temperature;BME280_humidity;BME280_pressure;Samples;Min_cycle;Max_cycle;Signal;HPM_P1;HPM_P2
2023/08/22 00:00:41;;;;;;;12.43;5.90;;;18.20;99.90;;;;;;4998752;28;20041;-87
2023/08/22 00:03:06;;;;;;;12.18;6.07;;;18.20;99.90;;;;;;5015306;28;20041;-87
2023/08/22 00:05:32;;;;;;;11.27;5.40;;;19.10;99.90;;;;;;5015125;28;20041;-87
2023/08/22 00:08:00;;;;;;;10.35;5.47;;;18.30;99.90;;;;;;5031542;28;20388;-87
2023/08/22 00:10:26;;;;;;;11.88;5.93;;;18.30;99.90;;;;;;5031309;28;20044;-87
2023/08/22 00:12:52;;;;;;;10.57;5.47;;;18.30;99.90;;;;;;4999016;28;20510;-87
2023/08/22 00:15:18;;;;;;;11.05;5.43;;;18.30;99.90;;;;;;5015209;28;20102;-87
2023/08/22 00:17:44;;;;;;;11.73;5.65;;;18.30;99.90;;;;;;5031403;28;20493;-87
2023/08/22 00:20:11;;;;;;;10.40;5.05;;;18.30;99.90;;;;;;5031410;28;20176;-87
2023/08/22 00:22:37;;;;;;;11.55;4.97;;;18.20;99.90;;;;;;5047936;28;20043;-87
2023/08/22 00:25:04;;;;;;;10.48;5.00;;;18.20;99.90;;;;;;5031181;28;20094;-87
2023/08/22 00:27:30;;;;;;;10.73;5.07;;;18.20;99.90;;;;;;5031225;28;20041;-88
2023/08/22 00:29:57;;;;;;;11.32;5.18;;;18.20;99.90;;;;;;5023987;28;20045;-88
2023/08/22 00:32:26;;;;;;;10.88;4.50;;;18.20;99.90;;;;;;5045423;28;20309;-88
2023/08/22 00:34:52;;;;;;;10.98;4.93;;;18.20;99.90;;;;;;5030990;28;20411;-87
2023/08/22 00:37:18;;;;;;;10.80;4.90;;;18.20;99.90;;;;;;5014501;28;20368;-87
2023/08/22 00:39:44;;;;;;;12.63;5.00;;;18.20;99.90;;;;;;5031197;28;20395;-87
2023/08/22 00:42:10;;;;;;;10.75;5.07;;;18.20;99.90;;;;;;5013450;28;20045;-87
2023/08/22 00:44:36;;;;;;;12.85;5.18;;;18.20;99.90;;;;;;5031303;28;20150;-88
2023/08/22 00:47:02;;;;;;;12.48;5.20;;;18.20;99.90;;;;;;5030998;28;20051;-87
2023/08/22 00:49:28;;;;;;;13.13;5.50;;;18.20;99.90;;;;;;5030716;28;20128;-88
2023/08/22 00:51:55;;;;;;;11.35;5.68;;;18.20;99.90;;;;;;5031082;28;20124;-86
2023/08/22 00:54:22;;;;;;;13.45;5.43;;;18.20;99.90;;;;;;5030969;28;20037;-86
2023/08/22 00:56:49;;;;;;;10.43;4.80;;;18.20;99.90;;;;;;5031148;28;20044;-87
2023/08/22 00:59:15;;;;;;;9.88;4.47;;;18.20;99.90;;;;;;5030623;28;20059;-88
2023/08/22 01:01:41;;;;;;;11.25;5.28;;;18.20;99.90;;;;;;5015490;28;20656;-88
2023/08/22 01:04:07;;;;;;;9.95;4.78;;;18.20;99.90;;;;;;5030589;28;20255;-88
2023/08/22 01:06:38;;;;;;;10.77;5.10;;;18.10;99.90;;;;;;5030732;28;20120;-88
2023/08/22 01:09:31;;;;;;;11.60;4.93;;;18.10;99.90;;;;;;5046976;28;20056;-88
2023/08/22 01:12:05;;;;;;;11.25;5.45;;;18.10;99.90;;;;;;5047129;28;20183;-87
2023/08/22 01:14:36;;;;;;;12.45;5.57;;;18.10;99.90;;;;;;5047319;28;20116;-87
2023/08/22 01:17:04;;;;;;;13.73;5.90;;;18.10;99.90;;;;;;5048377;28;20516;-87
2023/08/22 01:19:29;;;;;;;12.82;4.97;;;18.10;99.90;;;;;;5018383;28;20548;-88
2023/08/22 01:21:55;;;;;;;11.55;4.90;;;18.00;99.90;;;;;;5018374;28;20041;-87
2023/08/22 01:24:21;;;;;;;12.00;5.53;;;18.00;99.90;;;;;;5051104;28;20119;-87
2023/08/22 01:26:47;;;;;;;12.80;5.60;;;18.00;99.90;;;;;;5001903;28;20040;-88
2023/08/22 01:29:41;;;;;;;12.85;6.22;;;18.00;99.90;;;;;;5017871;28;20041;-88
2023/08/22 01:32:21;;;;;;;13.52;6.68;;;18.00;99.90;;;;;;5034216;28;20114;-88
2023/08/22 01:34:48;;;;;;;13.23;6.18;;;18.00;99.90;;;;;;5050879;28;20080;-88
2023/08/22 01:37:15;;;;;;;11.45;5.78;;;18.00;99.90;;;;;;5018006;28;20048;-88
2023/08/22 01:39:42;;;;;;;12.32;5.82;;;18.00;99.90;;;;;;5034621;28;20032;-88
2023/08/22 01:42:08;;;;;;;11.77;5.30;;;18.00;99.90;;;;;;5033962;28;20132;-87
2023/08/22 01:44:36;;;;;;;12.18;5.88;;;18.00;99.90;;;;;;5017511;28;20076;-88
2023/08/22 01:47:02;;;;;;;12.95;5.95;;;18.00;99.90;;;;;;5034041;28;20049;-87
2023/08/22 01:49:28;;;;;;;11.70;5.65;;;18.00;99.90;;;;;;5034180;28;20041;-88
2023/08/22 01:51:55;;;;;;;12.13;5.60;;;18.00;99.90;;;;;;5034569;28;20501;-88
2023/08/22 01:54:21;;;;;;;11.45;4.95;;;17.90;99.90;;;;;;5018121;28;20037;-88
2023/08/22 01:56:47;;;;;;;10.70;5.05;;;17.90;99.90;;;;;;5018015;28;20429;-88
2023/08/22 01:59:13;;;;;;;12.73;5.07;;;17.90;99.90;;;;;;5017369;28;20037;-88
2023/08/22 02:01:39;;;;;;;11.32;4.90;;;17.90;99.90;;;;;;5034332;28;20037;-88
2023/08/22 02:04:04;;;;;;;12.77;5.20;;;17.90;99.90;;;;;;5033862;28;20049;-89
2023/08/22 02:06:31;;;;;;;11.10;4.70;;;17.80;99.90;;;;;;5017845;28;20123;-87
2023/08/22 02:08:57;;;;;;;10.63;5.38;;;17.80;99.90;;;;;;5033805;28;20052;-88
2023/08/22 02:11:22;;;;;;;10.63;5.25;;;17.70;99.90;;;;;;5046004;28;20033;-87
2023/08/22 02:13:48;;;;;;;11.77;5.38;;;17.70;99.90;;;;;;5001117;28;20041;-88
2023/08/22 02:16:15;;;;;;;13.55;5.95;;;17.60;99.90;;;;;;5033682;28;20036;-88
2023/08/22 02:18:40;;;;;;;10.85;5.43;;;17.60;99.90;;;;;;5033678;28;20520;-88
2023/08/22 02:21:06;;;;;;;12.68;6.13;;;17.60;99.90;;;;;;5017078;28;20049;-88
2023/08/22 02:23:32;;;;;;;11.00;5.60;;;17.60;99.90;;;;;;5033558;28;20041;-88
2023/08/22 02:25:58;;;;;;;11.30;5.53;;;17.50;99.90;;;;;;5049947;28;20072;-88
2023/08/22 02:28:24;;;;;;;12.18;5.63;;;17.40;99.90;;;;;;5032645;28;20037;-88
2023/08/22 02:30:57;;;;;;;10.63;5.43;;;17.40;99.90;;;;;;5016734;28;20093;-88
2023/08/22 02:33:23;;;;;;;;;;;17.40;99.90;;;;;;5050167;28;20071;-87
2023/08/22 02:35:48;;;;;;;10.30;5.03;;;17.30;99.90;;;;;;5033462;28;19920;-88
2023/08/22 02:38:14;;;;;;;13.75;5.20;;;17.30;99.90;;;;;;5033601;28;20094;-88
2023/08/22 02:40:40;;;;;;;13.60;5.85;;;17.20;99.90;;;;;;5033602;28;20041;-88
2023/08/22 02:43:06;;;;;;;10.70;5.20;;;17.20;99.90;;;;;;5000970;28;20043;-88
2023/08/22 02:45:31;;;;;;;10.43;4.78;;;17.20;99.90;;;;;;5033050;28;20537;-88
2023/08/22 02:47:57;;;;;;;13.98;5.50;;;17.20;99.90;;;;;;5017091;28;20037;-88
2023/08/22 02:50:23;;;;;;;11.52;4.80;;;17.20;99.90;;;;;;5016507;28;20465;-89
2023/08/22 02:52:50;;;;;;;11.77;5.10;;;17.20;99.90;;;;;;5016756;28;20049;-88
2023/08/22 02:55:17;;;;;;;12.27;5.85;;;17.20;99.90;;;;;;5032832;28;20056;-89
2023/08/22 02:57:42;;;;;;;10.27;5.20;;;17.30;99.90;;;;;;5049694;28;20037;-89
2023/08/22 03:00:11;;;;;;;13.82;5.53;;;17.20;99.90;;;;;;5016746;28;20040;-89
2023/08/22 03:02:37;;;;;;;11.57;5.10;;;17.20;99.90;;;;;;5017331;28;20407;-88
2023/08/22 03:05:11;;;;;;;11.70;5.35;;;17.30;99.90;;;;;;5016373;28;20109;-88
2023/08/22 03:07:37;;;;;;;11.65;5.13;;;17.30;99.90;;;;;;5032832;28;20040;-88
2023/08/22 03:10:03;;;;;;;11.15;5.45;;;17.30;99.90;;;;;;5016674;28;20040;-88
2023/08/22 03:12:28;;;;;;;13.98;5.80;;;17.30;99.90;;;;;;5032358;28;20040;-88
2023/08/22 03:14:54;;;;;;;12.90;5.88;;;17.30;99.90;;;;;;5032213;28;20037;-89
2023/08/22 03:17:20;;;;;;;13.18;5.55;;;17.30;99.90;;;;;;4999940;28;20088;-89
2023/08/22 03:19:45;;;;;;;11.32;5.70;;;17.30;99.90;;;;;;5032466;28;20090;-87
2023/08/22 03:22:11;;;;;;;12.05;5.47;;;17.30;99.90;;;;;;5016325;28;20148;-88
2023/08/22 03:24:37;;;;;;;11.95;6.20;;;17.30;99.90;;;;;;5029845;28;20100;-89
2023/08/22 03:27:03;;;;;;;11.52;5.32;;;17.20;99.90;;;;;;5032417;28;20041;-87
2023/08/22 03:29:28;;;;;;;13.82;6.30;;;17.20;99.90;;;;;;5032268;28;20037;-88
2023/08/22 03:31:58;;;;;;;13.90;5.95;;;17.20;99.90;;;;;;5032324;28;20075;-88
2023/08/22 03:34:24;;;;;;;11.57;5.93;;;17.20;99.90;;;;;;5048225;28;20053;-88
2023/08/22 03:36:50;;;;;;;11.93;5.22;;;17.20;99.90;;;;;;5032355;28;20057;-89
2023/08/22 03:39:16;;;;;;;12.48;5.70;;;17.10;99.90;;;;;;4998960;28;20053;-88
2023/08/22 03:41:41;;;;;;;10.63;5.72;;;17.10;99.90;;;;;;4999371;28;20037;-88
2023/08/22 03:44:07;;;;;;;11.73;4.95;;;17.10;99.90;;;;;;5031949;28;20075;-88
2023/08/22 03:46:33;;;;;;;10.55;5.18;;;17.00;99.90;;;;;;5031778;28;20048;-88
2023/08/22 03:48:58;;;;;;;9.90;4.22;;;17.00;99.90;;;;;;5031877;28;20059;-88
2023/08/22 03:51:24;;;;;;;10.82;5.18;;;17.00;99.90;;;;;;5015695;28;20037;-88
2023/08/22 03:53:50;;;;;;;13.02;5.25;;;16.90;99.90;;;;;;5015282;28;20121;-88
2023/08/22 03:56:15;;;;;;;10.43;5.13;;;17.00;99.90;;;;;;5015312;28;20055;-88
2023/08/22 03:58:41;;;;;;;10.38;4.85;;;16.90;99.90;;;;;;5031702;28;20045;-89
2023/08/22 04:01:07;;;;;;;9.98;4.80;;;16.90;99.90;;;;;;5015627;28;20076;-89
2023/08/22 04:03:32;;;;;;;10.70;4.80;;;16.80;99.90;;;;;;5048277;28;20045;-88
2023/08/22 04:05:59;;;;;;;11.60;4.88;;;16.80;99.90;;;;;;5031296;28;20048;-88
2023/08/22 04:08:25;;;;;;;11.25;4.88;;;16.90;99.90;;;;;;5031703;28;20039;-88
2023/08/22 04:10:52;;;;;;;11.50;4.95;;;16.70;99.90;;;;;;5029877;28;20037;-88
2023/08/22 04:13:18;;;;;;;9.73;4.38;;;16.70;99.90;;;;;;5023136;28;20049;-87
2023/08/22 04:15:44;;;;;;;11.50;5.45;;;16.70;99.90;;;;;;5014928;28;20533;-88
2023/08/22 04:18:09;;;;;;;13.07;4.85;;;16.60;99.90;;;;;;5047933;28;20052;-88
2023/08/22 04:20:35;;;;;;;11.43;4.53;;;16.60;99.90;;;;;;5031283;28;20052;-88
2023/08/22 04:23:01;;;;;;;12.40;5.22;;;16.60;99.90;;;;;;5031462;28;20064;-87
2023/08/22 04:25:27;;;;;;;9.13;4.30;;;16.50;99.90;;;;;;5014803;28;20036;-88
2023/08/22 04:27:52;;;;;;;10.27;4.65;;;16.50;99.90;;;;;;5014777;28;20040;-88
2023/08/22 04:30:18;;;;;;;10.40;4.60;;;16.50;99.90;;;;;;5014310;28;20055;-88
2023/08/22 04:32:44;;;;;;;10.95;5.03;;;16.40;99.90;;;;;;5031200;28;20044;-87
2023/08/22 04:35:10;;;;;;;12.25;5.35;;;16.40;99.90;;;;;;4998052;28;20044;-88
2023/08/22 04:37:35;;;;;;;12.70;4.45;;;16.40;99.90;;;;;;5014871;28;20063;-88
2023/08/22 04:40:03;;;;;;;10.93;5.18;;;16.40;99.90;;;;;;5014634;28;20497;-88
2023/08/22 04:42:29;;;;;;;10.02;4.80;;;16.40;99.90;;;;;;5025354;28;20099;-89
2023/08/22 04:44:55;;;;;;;9.45;4.55;;;16.40;99.90;;;;;;5031247;28;20310;-88
2023/08/22 04:47:21;;;;;;;11.05;5.05;;;16.40;99.90;;;;;;5014292;28;20376;-88
2023/08/22 04:49:46;;;;;;;11.75;5.00;;;16.40;99.90;;;;;;5014515;28;20071;-87
2023/08/22 04:52:12;;;;;;;11.32;5.57;;;16.40;99.90;;;;;;5046767;28;20041;-88
2023/08/22 04:54:38;;;;;;;12.02;5.47;;;16.50;99.90;;;;;;5030474;28;20098;-88
2023/08/22 04:57:04;;;;;;;11.10;5.47;;;16.50;99.90;;;;;;5031107;28;20048;-89
2023/08/22 04:59:29;;;;;;;11.07;4.72;;;16.50;99.90;;;;;;4998150;28;20107;-89
2023/08/22 05:01:55;;;;;;;11.38;5.25;;;16.60;99.90;;;;;;5031130;28;20465;-89
2023/08/22 05:04:21;;;;;;;11.70;5.03;;;16.60;99.90;;;;;;5030679;28;20087;-88
2023/08/22 05:06:46;;;;;;;11.90;6.03;;;16.60;99.90;;;;;;5031220;28;20045;-88
2023/08/22 05:09:16;;;;;;;10.70;5.30;;;16.60;99.90;;;;;;5030945;28;20041;-88
2023/08/22 05:11:42;;;;;;;12.02;5.28;;;16.60;99.90;;;;;;5028337;28;20139;-88
2023/08/22 05:14:09;;;;;;;10.77;4.60;;;16.60;99.90;;;;;;5047638;28;20037;-89
2023/08/22 05:16:35;;;;;;;10.23;4.82;;;16.60;99.90;;;;;;5015228;28;20040;-88
2023/08/22 05:19:01;;;;;;;11.93;4.97;;;16.60;99.90;;;;;;5030730;28;20099;-89
2023/08/22 05:21:27;;;;;;;12.63;5.45;;;16.70;99.90;;;;;;5031076;28;20041;-88
2023/08/22 05:23:53;;;;;;;11.63;5.05;;;16.70;99.90;;;;;;5030263;28;20461;-88
2023/08/22 05:26:18;;;;;;;11.70;5.20;;;16.70;99.90;;;;;;5014181;28;20083;-89
2023/08/22 05:28:44;;;;;;;11.20;5.22;;;16.80;99.90;;;;;;5030468;28;20518;-89
2023/08/22 05:31:24;;;;;;;11.73;5.18;;;16.80;99.90;;;;;;5014456;28;20036;-89
2023/08/22 05:33:51;;;;;;;15.10;5.88;;;16.80;99.90;;;;;;5030234;28;20144;-89
2023/08/22 05:36:17;;;;;;;11.70;5.72;;;16.90;99.90;;;;;;5030194;28;20064;-89
2023/08/22 05:38:42;;;;;;;12.15;5.50;;;16.90;99.90;;;;;;5014234;28;20499;-89
2023/08/22 05:41:08;;;;;;;13.52;6.03;;;17.00;99.90;;;;;;5030299;28;20119;-89
2023/08/22 05:43:35;;;;;;;11.65;5.72;;;17.00;99.90;;;;;;5028525;28;20040;-89
2023/08/22 05:46:02;;;;;;;13.23;5.75;;;17.10;99.90;;;;;;5030479;28;20075;-88
2023/08/22 05:48:28;;;;;;;14.95;6.13;;;17.20;99.90;;;;;;5030619;28;20499;-88
2023/08/22 05:50:54;;;;;;;10.82;5.57;;;17.30;99.90;;;;;;5030378;28;20037;-88
2023/08/22 05:53:19;;;;;;;12.05;6.00;;;17.30;99.90;;;;;;5014178;28;20048;-89
2023/08/22 05:55:45;;;;;;;11.82;5.28;;;17.30;99.90;;;;;;5014105;28;20052;-89
2023/08/22 05:58:11;;;;;;;11.63;5.30;;;17.40;99.90;;;;;;5030614;28;20045;-89
2023/08/22 06:00:37;;;;;;;13.02;5.65;;;17.50;99.90;;;;;;5030185;28;20073;-89
2023/08/22 06:03:03;;;;;;;12.27;5.43;;;17.50;99.90;;;;;;5014635;28;20037;-89
2023/08/22 06:05:28;;;;;;;12.73;6.05;;;17.50;99.90;;;;;;5017077;28;20051;-89
2023/08/22 06:07:54;;;;;;;12.13;5.35;;;17.70;99.90;;;;;;5017327;28;20071;-88
2023/08/22 06:10:22;;;;;;;14.35;6.30;;;17.70;99.90;;;;;;5033749;28;20041;-89
2023/08/22 06:12:48;;;;;;;11.57;5.18;;;17.90;99.90;;;;;;5017678;28;20037;-89
2023/08/22 06:15:14;;;;;;;9.63;4.75;;;17.80;99.90;;;;;;5000752;28;20037;-89
2023/08/22 06:17:39;;;;;;;12.27;4.82;;;17.90;99.90;;;;;;5033671;28;20040;-88
2023/08/22 06:20:06;;;;;;;12.48;5.43;;;18.00;99.90;;;;;;5017023;28;20095;-88
2023/08/22 06:22:32;;;;;;;11.43;5.40;;;18.10;99.90;;;;;;5017870;28;20097;-89
2023/08/22 06:24:58;;;;;;;9.82;4.78;;;18.10;99.90;;;;;;5017371;28;20583;-89
2023/08/22 06:27:23;;;;;;;12.40;4.85;;;18.20;99.90;;;;;;5017266;28;20310;-89
2023/08/22 06:29:49;;;;;;;12.38;5.10;;;18.30;99.90;;;;;;5050208;28;20053;-89
2023/08/22 06:32:15;;;;;;;10.23;4.72;;;18.30;99.90;;;;;;5000736;28;20602;-88
2023/08/22 06:34:40;;;;;;;11.75;5.03;;;18.30;99.90;;;;;;5033341;28;20122;-89
2023/08/22 06:37:06;;;;;;;11.25;4.85;;;18.30;99.90;;;;;;5001141;28;20041;-87
2023/08/22 06:39:33;;;;;;;9.68;4.43;;;18.40;99.90;;;;;;5033818;28;20049;-89
2023/08/22 06:41:59;;;;;;;13.63;4.93;;;18.50;99.90;;;;;;5026466;28;20045;-88
2023/08/22 06:44:24;;;;;;;10.90;4.70;;;18.60;99.90;;;;;;5043970;28;20750;-88
2023/08/22 06:46:50;;;;;;;9.90;4.15;;;18.70;99.90;;;;;;5017190;28;20051;-89
2023/08/22 06:49:16;;;;;;;11.27;4.35;;;18.90;99.90;;;;;;5033198;28;20032;-88
2023/08/22 06:51:41;;;;;;;9.88;4.15;;;19.00;99.90;;;;;;5000631;28;20106;-89
2023/08/22 06:54:07;;;;;;;10.70;4.07;;;19.20;99.90;;;;;;5000446;28;20075;-88
2023/08/22 06:56:33;;;;;;;11.38;3.78;;;19.30;99.90;;;;;;5016548;28;20482;-89
2023/08/22 06:58:59;;;;;;;10.02;4.13;;;19.30;99.90;;;;;;5032559;28;20094;-89
2023/08/22 07:01:25;;;;;;;10.43;3.80;;;19.30;99.90;;;;;;5032550;28;20585;-90
2023/08/22 07:03:50;;;;;;;11.88;4.35;;;19.30;99.90;;;;;;5032389;28;20052;-90
2023/08/22 07:06:16;;;;;;;10.88;3.83;;;19.30;99.90;;;;;;5016359;28;20036;-89
2023/08/22 07:08:42;;;;;;;9.07;3.67;;;19.40;99.90;;;;;;5032851;28;20545;-88
2023/08/22 07:11:08;;;;;;;10.48;4.32;;;19.50;99.90;;;;;;4999792;28;20474;-88
2023/08/22 07:13:35;;;;;;;11.45;4.15;;;19.60;99.90;;;;;;5016266;28;20041;-88
2023/08/22 07:16:01;;;;;;;10.20;3.20;;;19.70;99.90;;;;;;5015412;28;20068;-87
2023/08/22 07:18:28;;;;;;;10.68;3.25;;;19.80;99.90;;;;;;5032389;28;20145;-89
2023/08/22 07:20:53;;;;;;;10.27;3.50;;;20.00;99.90;;;;;;5048976;28;20041;-89
2023/08/22 07:23:20;;;;;;;9.27;3.08;;;20.10;99.90;;;;;;5016071;28;20114;-90
2023/08/22 07:25:52;;;;;;;9.48;3.50;;;20.10;99.90;;;;;;5032321;28;20425;-89
2023/08/22 07:28:18;;;;;;;8.53;3.10;;;20.20;99.90;;;;;;5032704;28;20033;-89
2023/08/22 07:30:46;;;;;;;8.38;3.00;;;20.30;99.90;;;;;;5032352;28;20102;-88
2023/08/22 07:33:12;;;;;;;8.38;2.75;;;20.40;99.90;;;;;;5032495;28;20071;-88
2023/08/22 07:35:38;;;;;;;10.70;3.47;;;20.40;99.90;;;;;;5031408;28;20057;-87
2023/08/22 07:38:04;;;;;;;8.57;2.70;;;20.40;99.90;;;;;;5015354;28;20141;-87
2023/08/22 07:40:32;;;;;;;8.10;2.92;;;20.40;99.90;;;;;;5048412;28;20068;-88
2023/08/22 07:42:59;;;;;;;10.48;2.92;;;20.50;99.90;;;;;;5032015;28;20077;-88
2023/08/22 07:45:25;;;;;;;11.63;3.03;;;20.50;99.90;;;;;;5032014;28;20568;-88
2023/08/22 07:47:51;;;;;;;8.55;2.92;;;20.40;99.90;;;;;;5015372;28;20041;-88
2023/08/22 07:50:17;;;;;;;8.23;2.80;;;20.30;99.90;;;;;;5048738;28;20206;-88
2023/08/22 07:52:43;;;;;;;8.80;3.40;;;20.40;99.90;;;;;;5032118;28;20029;-89
2023/08/22 07:55:09;;;;;;;8.98;3.05;;;20.40;99.90;;;;;;4998816;28;20506;-89
2023/08/22 07:57:34;;;;;;;7.88;2.67;;;20.50;99.90;;;;;;5015176;28;20072;-88
2023/08/22 08:00:00;;;;;;;9.13;2.85;;;20.80;99.90;;;;;;5014845;28;20115;-88
2023/08/22 08:02:27;;;;;;;9.48;3.22;;;20.80;99.90;;;;;;5015225;28;20044;-89
2023/08/22 08:04:55;;;;;;;8.30;2.83;;;21.10;99.90;;;;;;5031668;28;20045;-88
2023/08/22 08:07:20;;;;;;;11.65;2.95;;;21.20;99.90;;;;;;5031512;28;20495;-88
2023/08/22 08:09:46;;;;;;;7.13;2.50;;;21.20;99.90;;;;;;5014929;28;20174;-88
2023/08/22 08:12:12;;;;;;;10.60;2.83;;;21.30;99.90;;;;;;5036849;28;20045;-88
2023/08/22 08:14:37;;;;;;;6.85;2.15;;;21.40;99.90;;;;;;5031507;28;20041;-87
2023/08/22 08:17:03;;;;;;;6.72;2.10;;;21.40;99.90;;;;;;5015015;28;20041;-88
2023/08/22 08:19:29;;;;;;;6.07;2.00;;;21.50;99.90;;;;;;5014801;28;20123;-87
2023/08/22 08:21:55;;;;;;;7.45;2.33;;;21.60;99.90;;;;;;5015468;28;20048;-87
2023/08/22 08:24:21;;;;;;;6.03;2.00;;;21.70;99.90;;;;;;5031305;28;20045;-89
2023/08/22 08:26:46;;;;;;;5.88;2.03;;;21.80;99.90;;;;;;5014135;28;20045;-89
2023/08/22 08:29:12;;;;;;;7.13;2.08;;;21.90;99.90;;;;;;5014273;28;20505;-88
2023/08/22 08:31:38;;;;;;;9.10;2.40;;;22.00;99.90;;;;;;5014873;28;20033;-88
2023/08/22 08:34:04;;;;;;;8.65;2.63;;;22.30;99.90;;;;;;5030756;28;20567;-89
2023/08/22 08:36:29;;;;;;;7.97;2.25;;;22.30;99.90;;;;;;4998246;28;20064;-89
2023/08/22 08:38:55;;;;;;;6.80;2.05;;;22.50;99.90;;;;;;5014229;28;20060;-89
2023/08/22 08:41:22;;;;;;;7.32;2.40;;;22.60;99.90;;;;;;5031071;28;20332;-88
2023/08/22 08:43:49;;;;;;;7.57;2.00;;;22.80;99.90;;;;;;5047310;28;20037;-88
2023/08/22 08:46:15;;;;;;;6.45;2.10;;;22.90;99.90;;;;;;5014649;28;20510;-88
2023/08/22 08:48:42;;;;;;;6.05;1.98;;;23.20;99.90;;;;;;5031116;28;20156;-88
2023/08/22 08:51:08;;;;;;;6.95;2.40;;;23.10;99.90;;;;;;5031486;28;20040;-89
2023/08/22 08:53:37;;;;;;;5.72;2.08;;;23.20;99.90;;;;;;5015394;28;20047;-89
2023/08/22 08:56:06;;;;;;;6.63;2.30;;;23.90;99.90;;;;;;5047483;28;20051;-88
2023/08/22 08:58:32;;;;;;;6.57;2.10;;;23.30;99.90;;;;;;5031143;28;20468;-88
2023/08/22 09:00:59;;;;;;;6.78;1.90;;;23.50;99.90;;;;;;4997638;28;20044;-89
2023/08/22 09:03:25;;;;;;;5.85;2.08;;;23.50;99.90;;;;;;5030862;28;20037;-90
2023/08/22 09:05:51;;;;;;;7.07;2.05;;;23.60;99.90;;;;;;5014112;28;20383;-87
2023/08/22 09:08:18;;;;;;;7.32;2.17;;;23.60;99.90;;;;;;5014006;28;20041;-88
2023/08/22 09:10:52;;;;;;;6.30;2.05;;;23.40;99.90;;;;;;5013477;28;20040;-88
2023/08/22 09:13:28;;;;;;;6.35;1.80;;;23.40;99.90;;;;;;5009192;28;20426;-88
2023/08/22 09:15:59;;;;;;;6.72;1.85;;;23.60;99.90;;;;;;5014456;28;20123;-87
2023/08/22 09:18:25;;;;;;;6.95;1.98;;;23.70;99.90;;;;;;4998276;28;20110;-87
2023/08/22 09:20:51;;;;;;;6.85;1.80;;;23.50;99.90;;;;;;4998201;28;20044;-88
2023/08/22 09:23:30;;;;;;;6.07;2.17;;;23.40;99.90;;;;;;5030426;28;20041;-87
2023/08/22 09:25:56;;;;;;;5.35;1.80;;;23.20;99.90;;;;;;5030360;28;20068;-88
2023/08/22 09:28:22;;;;;;;5.20;1.80;;;23.00;99.90;;;;;;5014492;28;20071;-89
2023/08/22 09:30:53;;;;;;;5.35;1.63;;;22.90;99.90;;;;;;5014152;28;20059;-89
2023/08/22 09:33:19;;;;;;;5.28;1.88;;;22.90;99.90;;;;;;5030334;28;20033;-89
2023/08/22 09:35:46;;;;;;;5.20;1.80;;;22.80;99.90;;;;;;5013908;28;20368;-89
2023/08/22 09:38:13;;;;;;;6.00;1.80;;;22.70;99.90;;;;;;5047945;28;20513;-90
2023/08/22 09:40:50;;;;;;;4.80;1.70;;;23.00;99.90;;;;;;5034351;28;20044;-87
2023/08/22 09:43:17;;;;;;;4.97;1.90;;;23.10;99.90;;;;;;5034071;28;20040;-88
2023/08/22 09:45:43;;;;;;;5.68;1.70;;;23.30;99.90;;;;;;5033993;28;20044;-88
2023/08/22 09:48:15;;;;;;;5.30;1.90;;;23.40;99.90;;;;;;5000994;28;20041;-89
2023/08/22 09:50:44;;;;;;;9.27;1.92;;;23.60;99.90;;;;;;5050526;28;20199;-88
2023/08/22 09:53:10;;;;;;;5.18;1.90;;;23.90;99.90;;;;;;5033824;28;20036;-89
2023/08/22 09:55:37;;;;;;;5.90;2.00;;;;;;;;;;5033916;28;20149;-88
2023/08/22 09:58:04;;;;;;;5.93;1.88;;;24.00;99.90;;;;;;5050682;28;20407;-88
2023/08/22 10:00:31;;;;;;;3.53;1.42;;;23.90;99.90;;;;;;5017797;28;20064;-88
2023/08/22 10:02:59;;;;;;;5.40;1.70;;;23.70;99.90;;;;;;5033787;28;20037;-88
2023/08/22 10:05:26;;;;;;;5.72;1.98;;;23.40;99.90;;;;;;5034168;28;20056;-89
2023/08/22 10:07:51;;;;;;;5.68;1.80;;;23.40;99.90;;;;;;5050164;28;20112;-88
2023/08/22 10:10:18;;;;;;;3.65;1.50;;;23.50;99.90;;;;;;5033668;28;20521;-89
2023/08/22 10:12:44;;;;;;;5.93;1.98;;;23.70;99.90;;;;;;5033996;28;20486;-88
2023/08/22 10:15:13;;;;;;;3.78;1.58;;;23.80;99.90;;;;;;5000711;28;20409;-88
2023/08/22 10:17:40;;;;;;;5.78;2.03;;;23.90;99.90;;;;;;5040801;28;20045;-89
2023/08/22 10:20:06;;;;;;;5.90;1.80;;;24.10;99.90;;;;;;5016249;28;20494;-87
2023/08/22 10:22:33;;;;;;;7.78;2.30;;;24.10;99.90;;;;;;5017274;28;20194;-88
2023/08/22 10:25:04;;;;;;;5.47;2.10;;;24.00;99.90;;;;;;5033323;28;20037;-88
2023/08/22 10:27:30;;;;;;;7.15;2.10;;;24.10;99.90;;;;;;5033645;28;20505;-88
2023/08/22 10:30:15;;;;;;;6.78;2.17;;;24.20;99.90;;;;;;5033387;28;20040;-88
2023/08/22 10:32:41;;;;;;;7.47;2.25;;;24.40;99.90;;;;;;5049667;28;20183;-90
2023/08/22 10:35:12;;;;;;;8.07;2.53;;;24.40;99.90;;;;;;5016709;28;20441;-89
2023/08/22 10:37:46;;;;;;;8.43;2.47;;;24.40;99.90;;;;;;5032758;28;20072;-90
2023/08/22 10:40:21;;;;;;;7.57;2.30;;;24.40;99.90;;;;;;5033389;28;20403;-88
2023/08/22 10:43:04;;;;;;;7.72;2.50;;;24.40;99.90;;;;;;5032941;28;20044;-87
2023/08/22 10:45:41;;;;;;;8.98;2.55;;;24.50;99.90;;;;;;5033200;28;20041;-86
2023/08/22 10:48:11;;;;;;;7.78;2.55;;;24.70;99.90;;;;;;5033111;28;20040;-87
2023/08/22 10:50:40;;;;;;;9.38;2.65;;;24.70;99.90;;;;;;5015627;28;20048;-87
2023/08/22 10:53:24;;;;;;;8.85;2.33;;;24.50;99.90;;;;;;5032814;28;20138;-89
2023/08/22 10:55:50;;;;;;;8.52;2.72;;;24.90;99.90;;;;;;5032995;28;20045;-89
2023/08/22 10:58:33;;;;;;;7.35;2.40;;;25.50;99.90;;;;;;5049742;28;20059;-89
2023/08/22 11:01:00;;;;;;;5.47;2.03;;;25.00;99.90;;;;;;5049453;28;20426;-88
2023/08/22 11:03:26;;;;;;;6.25;2.10;;;25.00;99.90;;;;;;4999813;28;20033;-88
2023/08/22 11:05:52;;;;;;;6.63;2.20;;;25.10;99.90;;;;;;5013673;28;20103;-87
2023/08/22 11:08:18;;;;;;;7.20;2.50;;;25.20;99.90;;;;;;5016390;28;20100;-88
2023/08/22 11:10:45;;;;;;;7.00;2.28;;;23.40;99.90;;;;;;5015722;28;20060;-87
2023/08/22 11:13:10;;;;;;;6.78;2.30;;;25.30;99.90;;;;;;5016589;28;20044;-86
2023/08/22 11:15:36;;;;;;;8.18;2.20;;;25.30;99.90;;;;;;5032449;28;20414;-87
2023/08/22 11:18:04;;;;;;;8.15;2.20;;;25.30;99.90;;;;;;5048695;28;20048;-88
2023/08/22 11:20:31;;;;;;;8.40;2.65;;;25.40;99.90;;;;;;5048783;28;20033;-89
2023/08/22 11:22:57;;;;;;;7.85;2.70;;;25.40;99.90;;;;;;5032719;28;20506;-87
2023/08/22 11:25:25;;;;;;;8.07;2.15;;;25.50;99.90;;;;;;5015584;28;20037;-88
2023/08/22 11:27:51;;;;;;;7.45;2.15;;;24.80;99.90;;;;;;5015558;28;20511;-88
2023/08/22 11:30:18;;;;;;;7.38;2.20;;;25.80;99.90;;;;;;5012151;28;20033;-87
2023/08/22 11:32:44;;;;;;;6.75;2.25;;;25.60;99.90;;;;;;5016116;28;20037;-88
2023/08/22 11:35:11;;;;;;;6.38;2.20;;;25.70;99.90;;;;;;5015764;28;20037;-88
2023/08/22 11:37:41;;;;;;;6.95;2.13;;;25.70;99.90;;;;;;4999486;28;20045;-89
2023/08/22 11:40:09;;;;;;;7.50;2.28;;;25.90;99.90;;;;;;5048342;28;20072;-88
2023/08/22 11:42:36;;;;;;;7.38;2.55;;;25.70;99.90;;;;;;5032019;28;20037;-85
2023/08/22 11:45:08;;;;;;;8.80;2.83;;;25.50;99.90;;;;;;5032048;28;20043;-87
2023/08/22 11:47:50;;;;;;;6.00;2.20;;;25.20;99.90;;;;;;5031764;28;20340;-85
2023/08/22 11:50:22;;;;;;;5.72;1.90;;;25.20;99.90;;;;;;5015415;28;20457;-87
2023/08/22 11:52:52;;;;;;;8.48;2.13;;;25.10;99.90;;;;;;5031806;28;20069;-85
2023/08/22 11:55:25;;;;;;;6.75;1.98;;;25.10;99.90;;;;;;5032203;28;20517;-87
2023/08/22 11:57:53;;;;;;;;;;;25.20;99.90;;;;;;5032242;28;20435;-87
2023/08/22 12:00:19;;;;;;;5.28;1.80;;;25.10;99.90;;;;;;5031640;28;19916;-87
2023/08/22 12:02:52;;;;;;;7.25;2.00;;;24.70;99.90;;;;;;5031223;28;20047;-86
2023/08/22 12:05:38;;;;;;;4.07;1.63;;;25.20;99.90;;;;;;5031445;28;20040;-85
2023/08/22 12:08:10;;;;;;;5.05;1.80;;;25.30;99.90;;;;;;5031390;28;20057;-86
2023/08/22 12:10:39;;;;;;;5.50;1.63;;;25.30;99.90;;;;;;5031323;28;20497;-85
2023/08/22 12:13:05;;;;;;;4.28;1.60;;;25.30;99.90;;;;;;5037326;28;20067;-86
2023/08/22 12:15:32;;;;;;;3.90;1.55;;;25.40;99.90;;;;;;5030944;28;20056;-86
2023/08/22 12:17:58;;;;;;;6.20;1.50;;;25.50;99.90;;;;;;5031338;28;20049;-85
2023/08/22 12:20:24;;;;;;;3.92;1.40;;;27.40;99.90;;;;;;5014745;28;20036;-86
2023/08/22 12:22:50;;;;;;;4.85;1.38;;;25.60;99.90;;;;;;5031518;28;20095;-86
2023/08/22 12:25:16;;;;;;;3.20;1.27;;;25.60;99.90;;;;;;5014846;28;20383;-86
2023/08/22 12:27:42;;;;;;;4.45;1.58;;;25.60;99.90;;;;;;5014661;28;20052;-86
2023/08/22 12:30:08;;;;;;;3.97;1.30;;;25.70;99.90;;;;;;5014304;28;20077;-88
2023/08/22 12:32:33;;;;;;;3.72;1.42;;;25.80;99.90;;;;;;5031108;28;20047;-86
2023/08/22 12:35:00;;;;;;;5.63;1.67;;;25.80;99.90;;;;;;5014566;28;20041;-86
2023/08/22 12:37:25;;;;;;;3.75;1.30;;;25.70;99.90;;;;;;5030988;28;20565;-87
2023/08/22 12:39:52;;;;;;;5.75;1.63;;;26.20;99.90;;;;;;5014327;28;20080;-86
2023/08/22 12:42:17;;;;;;;1.98;1.10;;;25.80;99.90;;;;;;5042168;28;20075;-87